createdAt,value
2023-05-22T00:05:00.259Z,19.6
2023-05-22T00:10:36.523Z,19.6
2023-05-22T00:16:27.138Z,19.6
2023-05-22T00:22:20.003Z,19.6
2023-05-22T00:28:11.618Z,19.6
2023-05-22T00:34:02.710Z,19.6
2023-05-22T00:39:54.750Z,19.6
2023-05-22T00:45:46.531Z,19.6
2023-05-22T00:51:37.585Z,19.6
2023-05-22T00:57:28.648Z,19.6
2023-05-22T01:03:21.610Z,19.6
2023-05-22T01:09:13.426Z,19.6
2023-05-22T01:15:05.174Z,19.6
2023-05-22T01:20:57.644Z,19.6
2023-05-22T01:26:48.958Z,19.6
2023-05-22T01:32:40.751Z,19.6
2023-05-22T01:38:31.985Z,19.6
2023-05-22T01:44:23.906Z,19.6
2023-05-22T01:50:16.179Z,19.6
2023-05-22T01:56:06.713Z,19.6
2023-05-22T02:01:58.916Z,19.6
2023-05-22T02:07:52.351Z,19.6
2023-05-22T02:13:43.786Z,19.6
2023-05-22T02:19:20.252Z,19.6
2023-05-22T02:25:12.466Z,19.6
2023-05-22T02:31:04.170Z,19.6
2023-05-22T02:36:55.460Z,19.6
2023-05-22T02:42:47.824Z,19.6
2023-05-22T02:48:39.988Z,19.5
2023-05-22T02:54:30.722Z,19.5
2023-05-22T03:00:22.520Z,19.5
2023-05-22T03:06:14.808Z,19.5
2023-05-22T03:12:06.430Z,19.5
2023-05-22T03:17:58.594Z,19.5
2023-05-22T03:23:50.023Z,19.5
2023-05-22T03:29:41.336Z,19.4
2023-05-22T03:35:33.924Z,19.4
2023-05-22T03:41:09.948Z,19.4
2023-05-22T03:46:47.547Z,19.4
2023-05-22T03:52:42.302Z,19.4
2023-05-22T03:58:33.256Z,19.4
2023-05-22T04:04:24.151Z,19.4
2023-05-22T04:10:16.648Z,19.4
2023-05-22T04:16:08.488Z,19.4
2023-05-22T04:21:59.495Z,19.4
2023-05-22T04:27:51.278Z,19.4
2023-05-22T04:33:27.586Z,19.4
2023-05-22T04:39:03.292Z,19.4
2023-05-22T04:44:57.155Z,19.4
2023-05-22T04:50:49.398Z,19.4
2023-05-22T04:56:52.645Z,19.4
2023-05-22T05:02:46.109Z,19.4
2023-05-22T05:08:39.458Z,19.4
2023-05-22T05:14:30.347Z,19.4
2023-05-22T05:20:25.765Z,19.4
2023-05-22T05:26:01.751Z,19.4
2023-05-22T05:31:52.582Z,19.4
2023-05-22T05:37:29.586Z,19.4
2023-05-22T05:43:20.692Z,19.5
2023-05-22T05:49:11.717Z,19.5
2023-05-22T05:55:03.644Z,19.5
2023-05-22T06:00:56.919Z,19.5
2023-05-22T06:06:49.894Z,19.5
2023-05-22T06:12:26.109Z,19.5
2023-05-22T06:18:19.284Z,19.5
2023-05-22T06:24:10.738Z,19.5
2023-05-22T06:30:04.484Z,19.5
2023-05-22T06:36:15.799Z,19.5
2023-05-22T06:42:06.640Z,19.6
2023-05-22T06:47:59.685Z,19.5
2023-05-22T06:53:52.042Z,19.6
2023-05-22T06:59:43.247Z,19.6
2023-05-22T07:05:36.390Z,19.5
2023-05-22T07:11:31.565Z,19.5
2023-05-22T07:17:25.636Z,19.6
2023-05-22T07:23:19.278Z,19.5
2023-05-22T07:29:11.123Z,19.5
2023-05-22T07:35:03.715Z,19.4
2023-05-22T07:40:58.443Z,19.5
2023-05-22T07:46:51.524Z,19.5
2023-05-22T07:52:42.926Z,19.5
2023-05-22T07:58:37.277Z,19.5
2023-05-22T08:04:15.295Z,19.5
2023-05-22T08:10:10.459Z,19.5
2023-05-22T08:16:33.577Z,19.5
2023-05-22T08:22:11.906Z,19.6
2023-05-22T08:28:04.105Z,19.6
2023-05-22T08:33:57.816Z,19.6
2023-05-22T08:39:50.138Z,19.6
2023-05-22T08:45:43.646Z,19.6
2023-05-22T08:51:36.409Z,19.6
2023-05-22T08:57:35.243Z,19.6
2023-05-22T09:03:29.179Z,19.6
2023-05-22T09:09:34.619Z,19.6
2023-05-22T09:15:28.220Z,19.6
2023-05-22T09:21:29.824Z,19.6
2023-05-22T09:27:27.319Z,19.6
2023-05-22T09:33:20.136Z,19.6
2023-05-22T09:39:12.833Z,19.6
2023-05-22T09:45:07.757Z,19.6
2023-05-22T09:51:00.823Z,19.6
2023-05-22T09:57:08.250Z,19.6
2023-05-22T10:03:03.643Z,19.6
2023-05-22T10:08:58.767Z,19.6
2023-05-22T10:14:54.113Z,19.6
2023-05-22T10:20:51.995Z,19.7
2023-05-22T10:26:30.103Z,19.6
2023-05-22T10:32:22.764Z,19.6
2023-05-22T10:38:27.490Z,19.7
2023-05-22T10:44:21.235Z,19.7
2023-05-22T10:50:00.700Z,19.7
2023-05-22T10:55:54.762Z,19.7
2023-05-22T11:01:49.013Z,19.7
2023-05-22T11:07:52.692Z,19.7
2023-05-22T11:13:48.738Z,19.7
2023-05-22T11:19:56.703Z,19.7
2023-05-22T11:25:49.576Z,19.7
2023-05-22T11:32:14.072Z,19.7
2023-05-22T11:37:51.594Z,19.7
2023-05-22T11:43:45.606Z,19.7
2023-05-22T11:49:41.722Z,19.7
2023-05-22T11:55:45.937Z,19.7
2023-05-22T12:01:41.390Z,19.7
2023-05-22T12:07:41.540Z,19.7
2023-05-22T12:13:37.845Z,19.7
2023-05-22T12:19:16.688Z,19.7
2023-05-22T12:25:12.273Z,19.7
2023-05-22T12:31:09.197Z,19.7
2023-05-22T12:36:48.545Z,19.7
2023-05-22T12:42:44.116Z,19.7
2023-05-22T12:48:23.842Z,19.7
2023-05-22T12:54:22.418Z,19.7
2023-05-22T13:00:17.607Z,19.7
2023-05-22T13:06:13.435Z,19.7
2023-05-22T13:11:53.911Z,19.7
2023-05-22T13:17:55.831Z,19.7
2023-05-22T13:23:58.322Z,19.7
2023-05-22T13:29:42.540Z,19.6
2023-05-22T13:35:41.952Z,19.7
2023-05-22T13:41:38.591Z,19.7
2023-05-22T13:47:33.992Z,19.7
2023-05-22T13:53:14.047Z,19.7
2023-05-22T13:59:09.279Z,19.7
2023-05-22T14:04:32.291Z,19.7
2023-05-22T14:10:10.205Z,19.7
2023-05-22T14:15:47.129Z,19.7
2023-05-22T14:21:24.344Z,19.7
2023-05-22T14:27:28.679Z,19.7
2023-05-22T14:33:21.838Z,19.7
2023-05-22T14:38:58.883Z,19.7
2023-05-22T14:44:20.291Z,19.7
2023-05-22T14:50:26.619Z,19.7
2023-05-22T14:56:18.736Z,19.8
2023-05-22T15:02:12.383Z,19.7
2023-05-22T15:08:15.784Z,19.8
2023-05-22T15:14:07.677Z,19.7
2023-05-22T15:20:01.276Z,19.7
2023-05-22T15:26:07.871Z,19.7
2023-05-22T15:32:01.099Z,19.7
2023-05-22T15:37:53.898Z,19.7
2023-05-22T15:43:58.991Z,19.8
2023-05-22T15:49:51.428Z,19.7
2023-05-22T15:55:46.353Z,19.7
2023-05-22T16:01:40.994Z,19.7
2023-05-22T16:07:18.718Z,19.7
2023-05-22T16:13:11.992Z,19.7
2023-05-22T16:19:09.601Z,19.8
2023-05-22T16:25:15.073Z,19.7
2023-05-22T16:31:10.811Z,19.7
2023-05-22T16:36:49.600Z,19.8
2023-05-22T16:42:43.224Z,19.7
2023-05-22T16:48:36.267Z,19.7
2023-05-22T16:54:28.852Z,19.7
2023-05-22T17:00:21.289Z,19.7
2023-05-22T17:06:15.747Z,19.7
2023-05-22T17:11:53.086Z,19.6
2023-05-22T17:17:45.404Z,19.6
2023-05-22T17:23:40.726Z,19.6
2023-05-22T17:29:15.167Z,19.4
2023-05-22T17:35:07.896Z,19.4
2023-05-22T17:41:15.830Z,19.3
2023-05-22T17:47:08.950Z,19.3
2023-05-22T17:53:01.086Z,19.3
2023-05-22T17:58:39.746Z,19.2
2023-05-22T18:04:02.728Z,19.2
2023-05-22T18:09:57.631Z,19.1
2023-05-22T18:16:05.947Z,19.1
2023-05-22T18:21:58.692Z,19.1
2023-05-22T18:27:20.323Z,19
2023-05-22T18:33:12.691Z,18.9
2023-05-22T18:39:06.090Z,18.9
2023-05-22T18:44:58.230Z,18.9
2023-05-22T18:50:51.448Z,18.9
2023-05-22T18:56:43.972Z,18.9
2023-05-22T19:02:37.049Z,19
2023-05-22T19:07:44.266Z,19.1
2023-05-22T19:13:09.617Z,19.2
2023-05-22T19:18:31.285Z,19.2
2023-05-22T19:23:37.704Z,19.3
2023-05-22T19:29:17.864Z,19.3
2023-05-22T19:34:55.881Z,19.3
2023-05-22T19:40:48.853Z,19.3
2023-05-22T19:46:26.627Z,19.3
2023-05-22T19:52:19.987Z,19.3
2023-05-22T19:58:12.356Z,19.3
2023-05-22T20:03:51.275Z,19.4
2023-05-22T20:09:12.597Z,19.4
2023-05-22T20:14:49.641Z,19.4
2023-05-22T20:20:43.377Z,19.4
2023-05-22T20:26:35.824Z,19.4
2023-05-22T20:32:28.736Z,19.4
2023-05-22T20:38:22.090Z,19.4
2023-05-22T20:44:14.544Z,19.4
2023-05-22T20:49:51.845Z,19.4
2023-05-22T20:55:44.366Z,19.4
2023-05-22T21:01:35.715Z,19.4
2023-05-22T21:07:29.144Z,19.4
2023-05-22T21:13:23.772Z,19.5
2023-05-22T21:19:16.064Z,19.5
2023-05-22T21:25:09.263Z,19.5
2023-05-22T21:31:01.968Z,19.5
2023-05-22T21:36:55.317Z,19.4
2023-05-22T21:42:44.913Z,19.5
2023-05-22T21:48:37.985Z,19.4
2023-05-22T21:54:31.147Z,19.4
2023-05-22T22:00:23.986Z,19.5
2023-05-22T22:06:17.697Z,19.5
2023-05-22T22:12:10.094Z,19.5
2023-05-22T22:18:02.833Z,19.5
2023-05-22T22:24:08.997Z,19.5
2023-05-22T22:30:00.589Z,19.5
2023-05-22T22:35:53.632Z,19.5
2023-05-22T22:41:33.518Z,19.5
2023-05-22T22:47:11.515Z,19.5
2023-05-22T22:53:04.608Z,19.5
2023-05-22T22:58:58.189Z,19.5
2023-05-22T23:04:50.448Z,19.5
2023-05-22T23:10:43.883Z,19.5
2023-05-22T23:16:36.921Z,19.5
2023-05-22T23:22:13.183Z,19.5
2023-05-22T23:27:38.378Z,19.5
2023-05-22T23:33:14.777Z,19.5
2023-05-22T23:38:50.607Z,19.5
2023-05-22T23:44:28.105Z,19.5
2023-05-22T23:50:20.254Z,19.5
2023-05-22T23:56:11.978Z,19.5
